CheckWX is a tool to help pilots better visualize weather data.  It is not intended as a substitute for an official pre-flight weather briefing.

02:11:06 UTC

EIDW METAR
Dublin Airport
Dublin, Ireland
Current

11 mins ago

EIDW 190200Z 24004KT 170V290 CAVOK 11/09 Q1007 NOSIG
Observed
Aug-19 @ 02:00 UTC
Wind
  • 240° at 4 KTS
Visibility
10,000+ meters
Flight Rules
VFR
Cloud Levels
  • Clear skies
Temperature
11°C / 52°F
Dewpoint
C / 48°F
Humidity
88%
Altimeter
29.73" Hg
Pressure
1006.92 hPa
Previous

41 mins ago

EIDW 190130Z 26009KT 230V290 CAVOK 11/10 Q1007 NOSIG
Observed
Aug-19 @ 01:30 UTC
Wind
  • 260° at 9 KTS
Visibility
10,000+ meters
Flight Rules
VFR
Cloud Levels
  • Clear skies
Temperature
11°C / 52°F
Dewpoint
10°C / 50°F
Humidity
94%
Altimeter
29.73" Hg
Pressure
1006.92 hPa
Previous

1 hour ago

EIDW 190100Z 26009KT 230V290 CAVOK 11/10 Q1007 NOSIG
Observed
Aug-19 @ 01:00 UTC
Wind
  • 260° at 9 KTS
Visibility
10,000+ meters
Flight Rules
VFR
Cloud Levels
  • Clear skies
Temperature
11°C / 52°F
Dewpoint
10°C / 50°F
Humidity
94%
Altimeter
29.73" Hg
Pressure
1006.92 hPa